Time;durP1;ratioP1;P1;durP2;ratioP2;P2;SDS_P1;SDS_P2;PMS_P1;PMS_P2;Temp;Humidity;BMP_temperature;BMP_pressure;BME280_temperature;BME280_humidity;BME280_pressure;Samples;Min_cycle;Max_cycle;Signal;HPM_P1;HPM_P2
2023/10/26 00:01:23;;;;;;;11.57;5.53;;;;;;;;;;6289455;22;20006;-76
2023/10/26 00:03:48;;;;;;;10.17;5.33;;;;;;;;;;6289776;22;20003;-76
2023/10/26 00:06:14;;;;;;;11.37;5.30;;;;;;;;;;6288421;22;20322;-75
2023/10/26 00:08:39;;;;;;;10.63;5.20;;;;;;;;;;6289633;22;20214;-75
2023/10/26 00:11:06;;;;;;;12.07;5.50;;;;;;;;;;6291108;22;20210;-74
2023/10/26 00:13:32;;;;;;;10.40;5.30;;;;;;;;;;6290694;22;20305;-74
2023/10/26 00:15:59;;;;;;;15.93;5.63;;;;;;;;;;6291161;22;20042;-75
2023/10/26 00:18:27;;;;;;;13.30;5.18;;;;;;;;;;6262466;22;20002;-75
2023/10/26 00:20:56;;;;;;;10.70;4.60;;;;;;;;;;6289623;22;19995;-75
2023/10/26 00:23:21;;;;;;;9.43;4.77;;;;;;;;;;6289401;22;19995;-74
2023/10/26 00:25:46;;;;;;;9.55;4.40;;;;;;;;;;6289909;22;20341;-75
2023/10/26 00:28:15;;;;;;;8.07;4.18;;;;;;;;;;6289675;22;20017;-75
2023/10/26 00:30:40;;;;;;;8.10;3.92;;;;;;;;;;6290282;22;20067;-75
2023/10/26 00:33:05;;;;;;;9.90;4.17;;;;;;;;;;6261735;22;20007;-75
2023/10/26 00:35:30;;;;;;;9.37;4.53;;;;;;;;;;6262119;22;20666;-75
2023/10/26 00:37:58;;;;;;;10.70;4.27;;;;;;;;;;6287002;22;20251;-75
2023/10/26 00:40:25;;;;;;;12.98;4.63;;;;;;;;;;6288554;22;20217;-75
2023/10/26 00:42:52;;;;;;;8.77;4.55;;;;;;;;;;6289275;22;20080;-75
2023/10/26 00:45:20;;;;;;;9.38;4.32;;;;;;;;;;6288912;22;20022;-75
2023/10/26 00:47:45;;;;;;;8.18;4.63;;;;;;;;;;6287971;22;20078;-75
2023/10/26 00:50:10;;;;;;;9.60;4.70;;;;;;;;;;6289456;22;20734;-74
2023/10/26 00:52:36;;;;;;;9.88;4.93;;;;;;;;;;6288256;22;20552;-75
2023/10/26 00:55:03;;;;;;;11.15;4.68;;;;;;;;;;6289197;22;20055;-75
2023/10/26 00:57:34;;;;;;;9.98;5.07;;;;;;;;;;6260956;22;20003;-73
2023/10/26 00:59:59;;;;;;;9.13;4.93;;;;;;;;;;6259398;22;20273;-75
2023/10/26 01:02:25;;;;;;;11.93;4.70;;;;;;;;;;6261446;22;20110;-73
2023/10/26 01:04:58;;;;;;;9.07;4.70;;;;;;;;;;6288500;22;20298;-74
2023/10/26 01:07:23;;;;;;;10.73;5.10;;;;;;;;;;6284578;22;20459;-74
2023/10/26 01:09:48;;;;;;;10.23;4.47;;;;;;;;;;6285739;22;20078;-74
2023/10/26 01:12:16;;;;;;;9.05;4.43;;;;;;;;;;6285714;22;20007;-74
2023/10/26 01:14:42;;;;;;;10.02;4.75;;;;;;;;;;6258387;22;20068;-73
2023/10/26 01:17:07;;;;;;;9.50;4.82;;;;;;;;;;6286110;22;19999;-74
2023/10/26 01:19:36;;;;;;;11.32;4.50;;;;;;;;;;6257518;22;20027;-72
2023/10/26 01:22:04;;;;;;;9.15;4.20;;;;;;;;;;6287166;22;20033;-74
2023/10/26 01:24:29;;;;;;;8.80;4.45;;;;;;;;;;6258106;22;20006;-73
2023/10/26 01:26:54;;;;;;;10.07;4.40;;;;;;;;;;6287400;22;20003;-74
2023/10/26 01:29:19;;;;;;;7.67;4.30;;;;;;;;;;6286095;22;19999;-74
2023/10/26 01:31:47;;;;;;;8.63;4.20;;;;;;;;;;6261918;22;20218;-74
2023/10/26 01:34:12;;;;;;;8.60;4.35;;;;;;;;;;6286533;22;20302;-73
2023/10/26 01:36:40;;;;;;;8.80;4.15;;;;;;;;;;6287523;22;20082;-74
2023/10/26 01:39:05;;;;;;;10.10;4.57;;;;;;;;;;6286847;22;19999;-73
2023/10/26 01:41:33;;;;;;;10.35;4.40;;;;;;;;;;6284115;22;20088;-73
2023/10/26 01:44:02;;;;;;;11.43;4.85;;;;;;;;;;6259029;22;20023;-74
2023/10/26 01:46:27;;;;;;;11.20;4.30;;;;;;;;;;6257909;22;20643;-76
2023/10/26 01:48:53;;;;;;;10.18;4.80;;;;;;;;;;6286574;22;20056;-76
2023/10/26 01:51:18;;;;;;;10.63;4.40;;;;;;;;;;6257360;22;20007;-77
2023/10/26 01:53:44;;;;;;;10.70;4.25;;;;;;;;;;6260227;22;20091;-73
2023/10/26 01:56:11;;;;;;;8.15;4.38;;;;;;;;;;6282905;22;20007;-76
2023/10/26 01:58:37;;;;;;;9.60;4.53;;;;;;;;;;6260916;22;20030;-76
2023/10/26 02:01:05;;;;;;;9.07;3.93;;;;;;;;;;6258176;22;20412;-76
2023/10/26 02:03:30;;;;;;;8.65;4.25;;;;;;;;;;6259939;22;20228;-73
2023/10/26 02:05:57;;;;;;;9.70;4.20;;;;;;;;;;6284980;22;20007;-76
2023/10/26 02:08:23;;;;;;;8.68;4.20;;;;;;;;;;6258255;22;20218;-76
2023/10/26 02:10:50;;;;;;;9.03;4.40;;;;;;;;;;6260017;22;20007;-76
2023/10/26 02:13:16;;;;;;;9.18;3.92;;;;;;;;;;6257353;22;20287;-73
2023/10/26 02:15:43;;;;;;;10.50;4.03;;;;;;;;;;6288890;22;20007;-73
2023/10/26 02:18:08;;;;;;;10.30;3.95;;;;;;;;;;6261432;22;20698;-76
2023/10/26 02:20:36;;;;;;;7.00;3.40;;;;;;;;;;6261264;22;20007;-73
2023/10/26 02:23:04;;;;;;;7.95;4.10;;;;;;;;;;6261293;22;20249;-76
2023/10/26 02:25:30;;;;;;;7.75;3.72;;;;;;;;;;6288006;22;20500;-75
2023/10/26 02:28:00;;;;;;;7.93;3.63;;;;;;;;;;6287286;22;20113;-74
2023/10/26 02:30:25;;;;;;;8.23;3.53;;;;;;;;;;6286592;22;20452;-76
2023/10/26 02:32:50;;;;;;;9.07;3.80;;;;;;;;;;6262174;22;20010;-75
2023/10/26 02:35:20;;;;;;;6.13;3.20;;;;;;;;;;6288208;22;20244;-75
2023/10/26 02:37:46;;;;;;;7.65;2.80;;;;;;;;;;6287999;22;20367;-75
2023/10/26 02:40:11;;;;;;;6.05;3.30;;;;;;;;;;6286652;22;19995;-75
2023/10/26 02:42:39;;;;;;;8.40;3.20;;;;;;;;;;6289472;22;20426;-75
2023/10/26 02:45:08;;;;;;;5.75;2.75;;;;;;;;;;6260844;22;20015;-75
2023/10/26 02:47:33;;;;;;;7.90;3.20;;;;;;;;;;6262146;22;20026;-75
2023/10/26 02:49:58;;;;;;;7.10;2.80;;;;;;;;;;6260934;22;20030;-74
2023/10/26 02:52:23;;;;;;;5.90;2.73;;;;;;;;;;6259889;22;20003;-75
2023/10/26 02:54:49;;;;;;;6.23;3.00;;;;;;;;;;6286833;22;20225;-75
2023/10/26 02:57:17;;;;;;;7.85;3.42;;;;;;;;;;6286672;22;20612;-75
2023/10/26 02:59:42;;;;;;;8.55;3.63;;;;;;;;;;6288948;22;19995;-75
2023/10/26 03:02:07;;;;;;;7.53;3.60;;;;;;;;;;6286345;22;20049;-74
2023/10/26 03:04:37;;;;;;;9.93;3.75;;;;;;;;;;6284766;22;20500;-75
2023/10/26 03:07:02;;;;;;;;;;;;;;;;;;6284697;22;20072;-75
2023/10/26 03:09:28;;;;;;;7.10;3.28;;;;;;;;;;6261831;22;19911;-75
2023/10/26 03:11:53;;;;;;;7.22;3.55;;;;;;;;;;6287006;22;19995;-75
2023/10/26 03:14:18;;;;;;;7.43;3.37;;;;;;;;;;6260134;22;20038;-75
2023/10/26 03:16:44;;;;;;;5.72;3.10;;;;;;;;;;6257927;22;20529;-75
2023/10/26 03:19:09;;;;;;;6.00;3.20;;;;;;;;;;6287974;22;20011;-75
2023/10/26 03:21:34;;;;;;;8.35;3.63;;;;;;;;;;6286817;22;20614;-75
2023/10/26 03:24:00;;;;;;;8.90;3.42;;;;;;;;;;6258982;22;20003;-75
2023/10/26 03:26:26;;;;;;;7.47;3.60;;;;;;;;;;6288835;22;20090;-75
2023/10/26 03:28:54;;;;;;;7.55;3.50;;;;;;;;;;6259430;22;20594;-75
2023/10/26 03:31:21;;;;;;;9.35;3.58;;;;;;;;;;6259593;22;20013;-75
2023/10/26 03:33:49;;;;;;;6.90;3.58;;;;;;;;;;6260655;22;19995;-75
2023/10/26 03:36:15;;;;;;;6.68;3.25;;;;;;;;;;6285717;22;20296;-75
2023/10/26 03:38:40;;;;;;;8.77;3.53;;;;;;;;;;6289555;22;20521;-75
2023/10/26 03:41:06;;;;;;;7.22;3.38;;;;;;;;;;6287193;22;20078;-75
2023/10/26 03:43:31;;;;;;;7.20;3.38;;;;;;;;;;6287455;22;20079;-75
2023/10/26 03:45:56;;;;;;;8.90;3.27;;;;;;;;;;6259485;22;20019;-74
2023/10/26 03:48:21;;;;;;;9.83;3.30;;;;;;;;;;6287720;22;20254;-75
2023/10/26 03:50:49;;;;;;;8.57;3.50;;;;;;;;;;6260456;22;20781;-75
2023/10/26 03:53:14;;;;;;;6.32;2.90;;;;;;;;;;6256944;22;20232;-74
2023/10/26 03:55:42;;;;;;;7.00;3.00;;;;;;;;;;6260555;22;20003;-74
2023/10/26 03:58:07;;;;;;;5.70;3.03;;;;;;;;;;6259531;22;20411;-74
2023/10/26 04:00:32;;;;;;;6.72;2.80;;;;;;;;;;6262099;22;20481;-74
2023/10/26 04:02:58;;;;;;;8.30;3.30;;;;;;;;;;6283044;22;20002;-74
2023/10/26 04:05:23;;;;;;;8.73;3.05;;;;;;;;;;6258976;22;20249;-75
2023/10/26 04:07:51;;;;;;;7.57;2.80;;;;;;;;;;6287061;22;20482;-73
2023/10/26 04:10:17;;;;;;;5.63;2.55;;;;;;;;;;6260106;22;20003;-75
2023/10/26 04:12:43;;;;;;;6.03;2.55;;;;;;;;;;6286950;22;19995;-75
2023/10/26 04:15:08;;;;;;;6.22;2.80;;;;;;;;;;6285778;22;20038;-73
2023/10/26 04:17:34;;;;;;;7.57;2.53;;;;;;;;;;6260500;22;20003;-74
2023/10/26 04:19:59;;;;;;;7.25;2.63;;;;;;;;;;6258429;22;20400;-74
2023/10/26 04:22:28;;;;;;;5.50;2.50;;;;;;;;;;6257029;22;20009;-74
2023/10/26 04:24:56;;;;;;;8.10;2.47;;;;;;;;;;6255643;22;20005;-75
2023/10/26 04:27:21;;;;;;;7.25;2.88;;;;;;;;;;6283297;22;20041;-75
2023/10/26 04:29:46;;;;;;;5.43;2.30;;;;;;;;;;6283672;22;20348;-75
2023/10/26 04:32:12;;;;;;;6.22;2.20;;;;;;;;;;6256843;22;20479;-74
2023/10/26 04:34:43;;;;;;;6.75;2.78;;;;;;;;;;6283869;22;20005;-73
2023/10/26 04:37:08;;;;;;;5.43;2.30;;;;;;;;;;6282975;22;20053;-74
2023/10/26 04:39:41;;;;;;;5.47;2.50;;;;;;;;;;6283207;22;19995;-75
2023/10/26 04:42:06;;;;;;;5.07;2.42;;;;;;;;;;6283750;22;20003;-75
2023/10/26 04:44:32;;;;;;;7.60;3.00;;;;;;;;;;6283951;22;19995;-76
2023/10/26 04:46:57;;;;;;;7.88;2.40;;;;;;;;;;6284969;22;20007;-75
2023/10/26 04:49:25;;;;;;;7.17;2.67;;;;;;;;;;6284489;22;20052;-72
2023/10/26 04:51:51;;;;;;;6.68;2.70;;;;;;;;;;6283150;22;20214;-74
2023/10/26 04:54:18;;;;;;;8.63;2.92;;;;;;;;;;6253840;22;20048;-74
2023/10/26 04:56:44;;;;;;;8.05;2.92;;;;;;;;;;6260302;22;20385;-74
2023/10/26 04:59:09;;;;;;;10.07;4.38;;;;;;;;;;6257234;22;20014;-76
2023/10/26 05:01:34;;;;;;;7.23;3.20;;;;;;;;;;6286458;22;20077;-75
2023/10/26 05:04:02;;;;;;;7.60;3.15;;;;;;;;;;6256924;22;20240;-75
2023/10/26 05:06:27;;;;;;;6.30;2.83;;;;;;;;;;6257749;22;20064;-74
2023/10/26 05:08:52;;;;;;;8.80;3.10;;;;;;;;;;6286018;22;20155;-74
2023/10/26 05:11:19;;;;;;;7.70;3.10;;;;;;;;;;6258422;22;20665;-74
2023/10/26 05:13:44;;;;;;;8.52;3.00;;;;;;;;;;6284781;22;20231;-74
2023/10/26 05:16:10;;;;;;;7.15;3.15;;;;;;;;;;6286286;22;20064;-74
2023/10/26 05:18:35;;;;;;;7.53;2.95;;;;;;;;;;6286073;22;19995;-75
2023/10/26 05:21:03;;;;;;;9.73;2.87;;;;;;;;;;6256781;22;20003;-75
2023/10/26 05:23:28;;;;;;;8.57;3.38;;;;;;;;;;6285832;22;20238;-75
2023/10/26 05:25:56;;;;;;;8.97;3.07;;;;;;;;;;6285783;22;20046;-74
2023/10/26 05:28:21;;;;;;;6.10;2.70;;;;;;;;;;6259998;22;20295;-74
2023/10/26 05:30:49;;;;;;;8.07;3.05;;;;;;;;;;6280356;22;20483;-75
2023/10/26 05:33:19;;;;;;;9.15;3.13;;;;;;;;;;6283419;22;20002;-75
2023/10/26 05:35:44;;;;;;;7.30;3.17;;;;;;;;;;6282334;22;20065;-74
2023/10/26 05:38:10;;;;;;;8.57;2.63;;;;;;;;;;6256871;22;20007;-74
2023/10/26 05:40:35;;;;;;;7.35;3.15;;;;;;;;;;6259403;22;20010;-75
2023/10/26 05:43:01;;;;;;;8.10;3.00;;;;;;;;;;6257497;22;19999;-74
2023/10/26 05:45:26;;;;;;;5.93;2.83;;;;;;;;;;6258380;22;20015;-75
2023/10/26 05:47:52;;;;;;;6.85;2.45;;;;;;;;;;6286213;22;20007;-74
2023/10/26 05:50:18;;;;;;;8.20;2.60;;;;;;;;;;6258797;22;20763;-75
2023/10/26 05:52:43;;;;;;;8.35;3.42;;;;;;;;;;6288915;22;20078;-74
2023/10/26 05:55:08;;;;;;;6.23;2.90;;;;;;;;;;6257305;22;20046;-75
2023/10/26 05:57:36;;;;;;;6.70;2.97;;;;;;;;;;6260934;22;20221;-74
2023/10/26 06:00:04;;;;;;;7.18;2.90;;;;;;;;;;6287794;22;20213;-75
2023/10/26 06:02:29;;;;;;;7.10;2.97;;;;;;;;;;6289563;22;20023;-75
2023/10/26 06:04:54;;;;;;;6.00;3.10;;;;;;;;;;6286542;22;20034;-75
2023/10/26 06:07:20;;;;;;;7.17;2.80;;;;;;;;;;6287919;22;20214;-75
2023/10/26 06:09:49;;;;;;;7.85;3.03;;;;;;;;;;6257804;22;20244;-75
2023/10/26 06:12:15;;;;;;;8.70;3.08;;;;;;;;;;6260961;22;19995;-75
2023/10/26 06:14:40;;;;;;;8.80;2.97;;;;;;;;;;6260690;22;20002;-74
2023/10/26 06:17:05;;;;;;;8.07;3.13;;;;;;;;;;6256783;22;20007;-75
2023/10/26 06:19:31;;;;;;;6.22;2.63;;;;;;;;;;6287304;22;20538;-75
2023/10/26 06:21:57;;;;;;;5.80;2.80;;;;;;;;;;6285334;22;20007;-75
2023/10/26 06:24:22;;;;;;;6.72;2.95;;;;;;;;;;6289125;22;20557;-75
2023/10/26 06:26:47;;;;;;;7.25;2.75;;;;;;;;;;6285221;22;20042;-75
2023/10/26 06:29:12;;;;;;;5.10;2.50;;;;;;;;;;6288651;22;20482;-75
2023/10/26 06:31:38;;;;;;;7.07;3.08;;;;;;;;;;6259592;22;20222;-75
2023/10/26 06:34:03;;;;;;;8.80;2.70;;;;;;;;;;6259394;22;20003;-75
2023/10/26 06:36:28;;;;;;;5.78;2.58;;;;;;;;;;6288682;22;20534;-75
2023/10/26 06:38:56;;;;;;;5.17;2.50;;;;;;;;;;6258495;22;20676;-75
2023/10/26 06:41:21;;;;;;;8.35;2.22;;;;;;;;;;6288371;22;20218;-75
2023/10/26 06:43:47;;;;;;;6.18;2.35;;;;;;;;;;6285334;22;20479;-76
2023/10/26 06:46:12;;;;;;;7.53;2.60;;;;;;;;;;6261202;22;20614;-74
2023/10/26 06:48:37;;;;;;;8.35;2.80;;;;;;;;;;6286358;22;20210;-75
2023/10/26 06:51:03;;;;;;;7.57;2.58;;;;;;;;;;6261250;22;20049;-75
2023/10/26 06:53:29;;;;;;;5.40;2.50;;;;;;;;;;6286686;22;20060;-75
2023/10/26 06:55:54;;;;;;;6.22;2.47;;;;;;;;;;6289408;22;20057;-75
2023/10/26 06:58:20;;;;;;;6.35;2.75;;;;;;;;;;6288361;22;20093;-75
2023/10/26 07:00:45;;;;;;;7.38;2.92;;;;;;;;;;6288424;22;20000;-75
2023/10/26 07:03:10;;;;;;;6.20;2.65;;;;;;;;;;6288136;22;20023;-75
2023/10/26 07:05:38;;;;;;;6.07;2.83;;;;;;;;;;6261407;22;20722;-75
2023/10/26 07:08:04;;;;;;;8.23;3.33;;;;;;;;;;6286084;22;20022;-74
2023/10/26 07:10:31;;;;;;;6.22;2.97;;;;;;;;;;6259780;22;20030;-75
2023/10/26 07:12:59;;;;;;;7.07;3.10;;;;;;;;;;6258781;22;20003;-74
2023/10/26 07:15:24;;;;;;;6.28;2.70;;;;;;;;;;6287985;22;20010;-75
2023/10/26 07:17:53;;;;;;;6.88;2.92;;;;;;;;;;6288373;22;19995;-75
2023/10/26 07:20:21;;;;;;;7.03;3.22;;;;;;;;;;6288238;22;20435;-74
2023/10/26 07:22:47;;;;;;;6.25;3.65;;;;;;;;;;6260708;22;20023;-74
2023/10/26 07:25:12;;;;;;;7.85;3.40;;;;;;;;;;6260243;22;20646;-75
2023/10/26 07:27:38;;;;;;;7.55;3.17;;;;;;;;;;6261215;22;20040;-75
2023/10/26 07:30:04;;;;;;;8.75;3.67;;;;;;;;;;6259235;22;20003;-74
2023/10/26 07:32:32;;;;;;;15.55;6.90;;;;;;;;;;6260820;22;20665;-75
2023/10/26 07:34:58;;;;;;;10.98;5.30;;;;;;;;;;6258909;22;20111;-74
2023/10/26 07:37:24;;;;;;;8.95;4.30;;;;;;;;;;6286521;22;20154;-75
2023/10/26 07:39:49;;;;;;;8.10;3.08;;;;;;;;;;6288284;22;20610;-75
2023/10/26 07:42:16;;;;;;;7.30;3.20;;;;;;;;;;6255845;22;19999;-75
2023/10/26 07:44:42;;;;;;;7.03;2.63;;;;;;;;;;6284282;22;20242;-75
2023/10/26 07:47:12;;;;;;;8.30;3.00;;;;;;;;;;6255980;22;20136;-75
2023/10/26 07:49:37;;;;;;;6.40;2.60;;;;;;;;;;6290492;22;20236;-75
2023/10/26 07:52:03;;;;;;;6.93;2.40;;;;;;;;;;6290240;22;20408;-74
2023/10/26 07:54:28;;;;;;;5.85;2.35;;;;;;;;;;6262092;22;20222;-75
2023/10/26 07:56:54;;;;;;;6.43;2.33;;;;;;;;;;6288497;22;20049;-74
2023/10/26 07:59:19;;;;;;;7.25;2.30;;;;;;;;;;6288674;22;19995;-75
2023/10/26 08:01:44;;;;;;;6.00;1.90;;;;;;;;;;6290625;22;20026;-74
2023/10/26 08:04:09;;;;;;;9.30;2.60;;;;;;;;;;6262963;22;20311;-75
2023/10/26 08:06:35;;;;;;;6.72;2.42;;;;;;;;;;6262437;22;20443;-74
2023/10/26 08:09:00;;;;;;;5.00;2.20;;;;;;;;;;6262179;22;19999;-74
2023/10/26 08:11:26;;;;;;;7.63;2.70;;;;;;;;;;6288977;22;19995;-75
2023/10/26 08:13:51;;;;;;;6.80;2.80;;;;;;;;;;6262126;22;20106;-74
2023/10/26 08:16:19;;;;;;;5.20;2.47;;;;;;;;;;6289715;22;20025;-75
2023/10/26 08:18:44;;;;;;;5.05;2.30;;;;;;;;;;6290409;22;20271;-75
2023/10/26 08:21:10;;;;;;;7.93;2.50;;;;;;;;;;6262002;22;20098;-73
2023/10/26 08:23:40;;;;;;;5.18;2.30;;;;;;;;;;6260984;22;20233;-72
2023/10/26 08:26:09;;;;;;;6.45;2.40;;;;;;;;;;6260588;22;20011;-72
2023/10/26 08:28:36;;;;;;;6.18;2.42;;;;;;;;;;6287681;22;20089;-73
2023/10/26 08:31:02;;;;;;;7.22;2.65;;;;;;;;;;6288461;22;20875;-73
2023/10/26 08:33:30;;;;;;;6.05;2.42;;;;;;;;;;6288176;22;20008;-73
2023/10/26 08:35:56;;;;;;;5.15;2.08;;;;;;;;;;6260482;22;20037;-73
2023/10/26 08:38:22;;;;;;;6.43;2.40;;;;;;;;;;6288100;22;20081;-73
2023/10/26 08:40:51;;;;;;;5.60;2.13;;;;;;;;;;6289904;22;20647;-71
2023/10/26 08:43:17;;;;;;;4.90;2.40;;;;;;;;;;6287236;22;20033;-74
2023/10/26 08:45:44;;;;;;;6.72;2.45;;;;;;;;;;6287943;22;20050;-72
2023/10/26 08:48:14;;;;;;;6.25;2.42;;;;;;;;;;6260731;22;20006;-73
2023/10/26 08:50:40;;;;;;;6.38;2.80;;;;;;;;;;6287783;22;19999;-73
2023/10/26 08:53:05;;;;;;;7.88;2.95;;;;;;;;;;6260522;22;19999;-73
2023/10/26 08:55:30;;;;;;;4.97;2.30;;;;;;;;;;6286984;22;20001;-73
2023/10/26 08:58:00;;;;;;;6.90;2.33;;;;;;;;;;6287976;22;20210;-73
2023/10/26 09:00:31;;;;;;;4.78;2.13;;;;;;;;;;6289971;22;20082;-73
2023/10/26 09:02:57;;;;;;;7.82;2.65;;;;;;;;;;6261562;22;20011;-73
2023/10/26 09:05:22;;;;;;;5.85;2.30;;;;;;;;;;6261343;22;20011;-73
2023/10/26 09:07:48;;;;;;;6.82;3.10;;;;;;;;;;6261417;22;20088;-73
2023/10/26 09:10:27;;;;;;;5.25;1.85;;;;;;;;;;6260001;22;20120;-74
2023/10/26 09:12:59;;;;;;;6.37;1.63;;;;;;;;;;6260062;22;20724;-73
2023/10/26 09:15:24;;;;;;;6.15;2.00;;;;;;;;;;6288323;22;20582;-73
2023/10/26 09:17:49;;;;;;;6.00;1.70;;;;;;;;;;6288632;22;20034;-73
2023/10/26 09:20:17;;;;;;;5.90;2.00;;;;;;;;;;6288675;22;20769;-73
2023/10/26 09:22:42;;;;;;;6.63;2.17;;;;;;;;;;6288667;22;20019;-73
2023/10/26 09:25:07;;;;;;;6.50;1.90;;;;;;;;;;6288889;22;20055;-73
2023/10/26 09:27:33;;;;;;;5.63;1.77;;;;;;;;;;6259156;22;20058;-73
2023/10/26 09:29:59;;;;;;;6.35;1.90;;;;;;;;;;6288151;22;20491;-73
2023/10/26 09:32:30;;;;;;;5.55;1.85;;;;;;;;;;6288696;22;20070;-73
2023/10/26 09:35:00;;;;;;;5.10;1.98;;;;;;;;;;6260735;22;19999;-73
2023/10/26 09:37:26;;;;;;;4.82;1.77;;;;;;;;;;6288339;22;19995;-74
2023/10/26 09:39:54;;;;;;;6.25;2.33;;;;;;;;;;6260459;22;20057;-74
2023/10/26 09:42:22;;;;;;;4.90;1.80;;;;;;;;;;6261826;22;20122;-73
2023/10/26 09:44:47;;;;;;;4.30;1.70;;;;;;;;;;6288267;22;20065;-73
2023/10/26 09:47:13;;;;;;;8.10;1.73;;;;;;;;;;6288799;22;20404;-74
2023/10/26 09:49:38;;;;;;;4.95;1.92;;;;;;;;;;6261490;22;20554;-74
2023/10/26 09:52:04;;;;;;;4.67;1.90;;;;;;;;;;6261724;22;19996;-73
2023/10/26 09:54:33;;;;;;;5.72;2.20;;;;;;;;;;6289134;22;20206;-73
2023/10/26 09:57:15;;;;;;;5.93;1.98;;;;;;;;;;6262875;22;20030;-73
2023/10/26 09:59:41;;;;;;;5.15;1.92;;;;;;;;;;6290674;22;20007;-73
2023/10/26 10:02:18;;;;;;;5.72;1.88;;;;;;;;;;6290900;22;20023;-74
2023/10/26 10:04:44;;;;;;;5.00;2.03;;;;;;;;;;6289077;22;20211;-73
2023/10/26 10:07:15;;;;;;;6.70;1.92;;;;;;;;;;6289225;22;20507;-73
2023/10/26 10:10:07;;;;;;;5.10;1.90;;;;;;;;;;6288753;22;20061;-73
2023/10/26 10:12:33;;;;;;;5.40;1.90;;;;;;;;;;6283115;22;20006;-73
2023/10/26 10:15:01;;;;;;;5.53;1.98;;;;;;;;;;6287067;22;20400;-73
2023/10/26 10:17:44;;;;;;;5.80;1.77;;;;;;;;;;6288802;22;19995;-72
2023/10/26 10:20:16;;;;;;;6.28;1.88;;;;;;;;;;6289923;22;19999;-73
2023/10/26 10:22:48;;;;;;;6.70;1.80;;;;;;;;;;6261543;22;20002;-73
2023/10/26 10:25:16;;;;;;;4.45;1.60;;;;;;;;;;6288775;22;20007;-74
2023/10/26 10:28:02;;;;;;;6.53;2.00;;;;;;;;;;6262319;22;19999;-73
2023/10/26 10:30:28;;;;;;;4.45;1.75;;;;;;;;;;6260331;22;20041;-73
2023/10/26 10:32:55;;;;;;;6.45;1.85;;;;;;;;;;6262061;22;19999;-73
2023/10/26 10:35:21;;;;;;;4.90;1.60;;;;;;;;;;6262844;22;20007;-73
2023/10/26 10:38:05;;;;;;;5.90;1.90;;;;;;;;;;6261080;22;20010;-73
2023/10/26 10:40:33;;;;;;;6.18;1.88;;;;;;;;;;6260551;22;20305;-73
2023/10/26 10:42:58;;;;;;;5.03;1.70;;;;;;;;;;6289643;22;19999;-73
2023/10/26 10:45:27;;;;;;;4.90;1.63;;;;;;;;;;6256320;22;20027;-72
2023/10/26 10:47:55;;;;;;;4.93;2.10;;;;;;;;;;6257271;22;19999;-71
2023/10/26 10:50:20;;;;;;;5.15;1.70;;;;;;;;;;6259063;22;20055;-72
2023/10/26 10:52:49;;;;;;;5.90;2.10;;;;;;;;;;6259701;22;20027;-73
2023/10/26 10:55:32;;;;;;;4.70;2.00;;;;;;;;;;6259263;22;20734;-73
2023/10/26 10:57:59;;;;;;;7.85;1.90;;;;;;;;;;6260136;22;20080;-73
2023/10/26 11:00:41;;;;;;;5.05;2.00;;;;;;;;;;6259949;22;20746;-73
2023/10/26 11:03:06;;;;;;;4.28;1.70;;;;;;;;;;6258758;22;20369;-73
2023/10/26 11:05:42;;;;;;;7.33;1.80;;;;;;;;;;6260359;22;20086;-73
2023/10/26 11:08:07;;;;;;;4.80;2.00;;;;;;;;;;6260438;22;20646;-73
2023/10/26 11:10:33;;;;;;;5.53;1.60;;;;;;;;;;6256239;22;19999;-73
2023/10/26 11:12:59;;;;;;;4.82;1.90;;;;;;;;;;6257227;22;20000;-73
2023/10/26 11:15:40;;;;;;;5.55;1.80;;;;;;;;;;6258041;22;20003;-73
2023/10/26 11:18:07;;;;;;;5.85;1.80;;;;;;;;;;6256456;22;20083;-74
2023/10/26 11:20:36;;;;;;;5.75;1.70;;;;;;;;;;6256386;22;20656;-73
2023/10/26 11:23:01;;;;;;;5.15;1.83;;;;;;;;;;6258144;22;19996;-73
2023/10/26 11:25:27;;;;;;;5.47;1.75;;;;;;;;;;6258131;22;20015;-73
2023/10/26 11:27:54;;;;;;;5.20;1.60;;;;;;;;;;6260232;22;19996;-73
2023/10/26 11:30:19;;;;;;;5.18;1.80;;;;;;;;;;6260597;22;19996;-74
2023/10/26 11:32:45;;;;;;;5.00;1.90;;;;;;;;;;6258663;22;20011;-74
2023/10/26 11:35:13;;;;;;;4.05;1.40;;;;;;;;;;6259109;22;20038;-74
2023/10/26 11:37:42;;;;;;;5.03;1.55;;;;;;;;;;6259895;22;20003;-73
2023/10/26 11:40:09;;;;;;;6.70;1.80;;;;;;;;;;6260403;22;20640;-73
2023/10/26 11:42:45;;;;;;;6.65;1.95;;;;;;;;;;6257737;22;20532;-73
2023/10/26 11:45:15;;;;;;;7.13;1.90;;;;;;;;;;6257277;22;20015;-74
2023/10/26 11:47:46;;;;;;;6.53;1.90;;;;;;;;;;6257822;22;20199;-74
2023/10/26 11:50:20;;;;;;;5.35;1.92;;;;;;;;;;6259955;22;19999;-73
2023/10/26 11:52:46;;;;;;;4.93;2.00;;;;;;;;;;6257005;22;19996;-72
2023/10/26 11:55:14;;;;;;;7.20;2.30;;;;;;;;;;6257912;22;19995;-73
2023/10/26 11:57:39;;;;;;;5.13;1.77;;;;;;;;;;6260258;22;20007;-74
2023/10/26 12:00:05;;;;;;;4.53;1.90;;;;;;;;;;6259129;22;20313;-74
2023/10/26 12:02:34;;;;;;;4.30;1.67;;;;;;;;;;6257528;22;20286;-73
2023/10/26 12:05:03;;;;;;;5.13;1.90;;;;;;;;;;6259837;22;19996;-73
2023/10/26 12:07:30;;;;;;;5.53;2.10;;;;;;;;;;6258128;22;20012;-73
2023/10/26 12:09:55;;;;;;;5.55;1.70;;;;;;;;;;6258642;22;20065;-74
2023/10/26 12:12:24;;;;;;;5.15;1.70;;;;;;;;;;6258591;22;20710;-74
2023/10/26 12:14:49;;;;;;;5.15;1.90;;;;;;;;;;6259685;22;20080;-74
2023/10/26 12:17:14;;;;;;;5.13;1.73;;;;;;;;;;6259481;22;20063;-75
2023/10/26 12:19:40;;;;;;;4.60;1.50;;;;;;;;;;6259262;22;20694;-76
2023/10/26 12:22:05;;;;;;;6.10;1.83;;;;;;;;;;6256422;22;20638;-76
2023/10/26 12:24:30;;;;;;;5.00;1.87;;;;;;;;;;6257250;22;20004;-75
2023/10/26 12:26:56;;;;;;;4.85;1.88;;;;;;;;;;6258576;22;20752;-71
2023/10/26 12:29:21;;;;;;;4.85;1.83;;;;;;;;;;6255995;22;20004;-78
2023/10/26 12:31:47;;;;;;;5.18;1.83;;;;;;;;;;6253758;22;19999;-75
2023/10/26 12:34:12;;;;;;;6.03;1.90;;;;;;;;;;6258792;22;20007;-75
2023/10/26 12:36:37;;;;;;;5.73;2.20;;;;;;;;;;6256254;22;20676;-77
2023/10/26 12:39:03;;;;;;;4.37;1.90;;;;;;;;;;6255765;22;20274;-77
2023/10/26 12:41:28;;;;;;;5.50;1.45;;;;;;;;;;6255548;22;20222;-75
2023/10/26 12:43:53;;;;;;;3.88;1.45;;;;;;;;;;6257600;22;20082;-77
2023/10/26 12:46:18;;;;;;;4.20;1.60;;;;;;;;;;6255322;22;20096;-76
2023/10/26 12:48:46;;;;;;;5.60;1.53;;;;;;;;;;6257334;22;20222;-77
2023/10/26 12:51:14;;;;;;;4.95;1.80;;;;;;;;;;6259665;22;20214;-75
2023/10/26 12:53:39;;;;;;;5.82;1.67;;;;;;;;;;6258745;22;20027;-74
2023/10/26 12:56:05;;;;;;;4.55;1.42;;;;;;;;;;6255585;22;20097;-76
2023/10/26 12:58:31;;;;;;;4.30;1.60;;;;;;;;;;6256765;22;20110;-77
2023/10/26 13:00:56;;;;;;;6.82;1.80;;;;;;;;;;6259774;22;20078;-76
2023/10/26 13:03:24;;;;;;;4.22;1.50;;;;;;;;;;6259733;22;20411;-76
2023/10/26 13:05:51;;;;;;;6.25;1.70;;;;;;;;;;6260777;22;20004;-77
2023/10/26 13:08:17;;;;;;;4.45;1.40;;;;;;;;;;6257779;22;20007;-76
2023/10/26 13:10:43;;;;;;;5.40;1.83;;;;;;;;;;6257560;22;20519;-74
2023/10/26 13:13:08;;;;;;;6.20;1.95;;;;;;;;;;6255177;22;20000;-76
2023/10/26 13:15:36;;;;;;;5.78;1.70;;;;;;;;;;6258140;22;20038;-76
2023/10/26 13:18:02;;;;;;;5.55;1.95;;;;;;;;;;6259251;22;20728;-76
2023/10/26 13:20:27;;;;;;;7.25;1.90;;;;;;;;;;6256722;22;19999;-77
2023/10/26 13:22:52;;;;;;;4.35;1.90;;;;;;;;;;6259084;22;20830;-76
2023/10/26 13:25:18;;;;;;;4.60;1.80;;;;;;;;;;6256311;22;20018;-76
2023/10/26 13:27:43;;;;;;;4.82;1.75;;;;;;;;;;6258916;22;20221;-74
2023/10/26 13:30:09;;;;;;;9.18;2.03;;;;;;;;;;6258354;22;20466;-76
2023/10/26 13:32:34;;;;;;;7.15;2.33;;;;;;;;;;6257493;22;20007;-76
2023/10/26 13:34:59;;;;;;;4.15;1.88;;;;;;;;;;6257949;22;20411;-76
2023/10/26 13:37:24;;;;;;;5.40;2.07;;;;;;;;;;6257799;22;20026;-78
2023/10/26 13:39:52;;;;;;;4.97;2.00;;;;;;;;;;6256029;22;20226;-77
2023/10/26 13:42:21;;;;;;;6.10;2.22;;;;;;;;;;6257861;22;20234;-77
2023/10/26 13:44:46;;;;;;;5.38;1.92;;;;;;;;;;6262384;22;20011;-77
2023/10/26 13:47:12;;;;;;;8.50;2.42;;;;;;;;;;6261855;22;20015;-74
2023/10/26 13:49:37;;;;;;;5.50;2.10;;;;;;;;;;6289409;22;19999;-76
2023/10/26 13:52:02;;;;;;;4.77;1.80;;;;;;;;;;6263471;22;20088;-77
2023/10/26 13:54:30;;;;;;;5.53;2.03;;;;;;;;;;6289844;22;20210;-77
2023/10/26 13:56:55;;;;;;;8.48;2.30;;;;;;;;;;6291642;22;19999;-77
2023/10/26 13:59:20;;;;;;;5.45;2.30;;;;;;;;;;6289452;22;20004;-76
2023/10/26 14:01:48;;;;;;;6.23;1.80;;;;;;;;;;6263341;22;20034;-75
2023/10/26 14:04:14;;;;;;;5.85;1.83;;;;;;;;;;6260881;22;20221;-75
2023/10/26 14:06:39;;;;;;;5.30;1.77;;;;;;;;;;6261306;22;20012;-76
2023/10/26 14:09:05;;;;;;;5.40;1.80;;;;;;;;;;6288045;22;20078;-76
2023/10/26 14:11:31;;;;;;;7.47;2.03;;;;;;;;;;6291719;22;20087;-77
2023/10/26 14:13:56;;;;;;;5.63;1.90;;;;;;;;;;6291415;22;20218;-76
2023/10/26 14:16:22;;;;;;;7.05;2.30;;;;;;;;;;6263038;22;20003;-77
2023/10/26 14:18:50;;;;;;;5.00;1.92;;;;;;;;;;6291716;22;20513;-75
2023/10/26 14:21:16;;;;;;;6.10;1.95;;;;;;;;;;6290530;22;20074;-77
2023/10/26 14:23:41;;;;;;;5.68;2.20;;;;;;;;;;6291536;22;19995;-77
2023/10/26 14:26:07;;;;;;;5.63;1.90;;;;;;;;;;6261561;22;20018;-76
2023/10/26 14:28:32;;;;;;;5.95;1.95;;;;;;;;;;6289937;22;20067;-76
2023/10/26 14:30:59;;;;;;;5.57;2.03;;;;;;;;;;6291394;22;20812;-78
2023/10/26 14:33:24;;;;;;;6.80;2.15;;;;;;;;;;6262726;22;20222;-76
2023/10/26 14:35:55;;;;;;;7.60;2.27;;;;;;;;;;6263784;22;20003;-76
2023/10/26 14:38:20;;;;;;;6.80;2.15;;;;;;;;;;6289907;22;20214;-76
2023/10/26 14:40:46;;;;;;;6.15;2.55;;;;;;;;;;6291714;22;20003;-75